sensor_id;sensor_type;location;lat;lon;timestamp;P1;P2;P0
80555;PMS5003;69889;55.040;73.076;2024-02-26T00:01:43;37.25;30.50;20.00
80555;PMS5003;69889;55.040;73.076;2024-02-26T00:04:12;38.75;31.00;20.50
80555;PMS5003;69889;55.040;73.076;2024-02-26T00:06:39;35.50;28.50;18.75
80555;PMS5003;69889;55.040;73.076;2024-02-26T00:09:08;36.00;30.75;20.50
80555;PMS5003;69889;55.040;73.076;2024-02-26T00:11:35;36.00;30.00;18.75
80555;PMS5003;69889;55.040;73.076;2024-02-26T00:14:02;35.00;29.00;19.00
80555;PMS5003;69889;55.040;73.076;2024-02-26T00:16:29;34.00;28.00;18.75
80555;PMS5003;69889;55.040;73.076;2024-02-26T00:18:56;35.50;29.00;18.50
80555;PMS5003;69889;55.040;73.076;2024-02-26T00:21:22;33.00;27.50;18.00
80555;PMS5003;69889;55.040;73.076;2024-02-26T00:23:49;35.00;29.00;20.00
80555;PMS5003;69889;55.040;73.076;2024-02-26T00:26:16;54.25;44.00;27.50
80555;PMS5003;69889;55.040;73.076;2024-02-26T00:28:43;76.25;63.25;38.25
80555;PMS5003;69889;55.040;73.076;2024-02-26T00:31:09;77.50;63.25;39.50
80555;PMS5003;69889;55.040;73.076;2024-02-26T00:33:36;67.50;51.25;32.50
80555;PMS5003;69889;55.040;73.076;2024-02-26T00:36:03;43.75;34.50;24.00
80555;PMS5003;69889;55.040;73.076;2024-02-26T00:38:29;42.00;33.00;21.75
80555;PMS5003;69889;55.040;73.076;2024-02-26T00:40:56;37.50;31.00;20.75
80555;PMS5003;69889;55.040;73.076;2024-02-26T00:43:22;39.00;33.00;20.25
80555;PMS5003;69889;55.040;73.076;2024-02-26T00:45:49;36.25;30.50;20.75
80555;PMS5003;69889;55.040;73.076;2024-02-26T00:48:15;38.50;30.75;20.50
80555;PMS5003;69889;55.040;73.076;2024-02-26T00:50:42;39.00;32.50;21.00
80555;PMS5003;69889;55.040;73.076;2024-02-26T00:53:09;46.50;36.50;23.75
80555;PMS5003;69889;55.040;73.076;2024-02-26T00:55:35;56.00;44.75;28.00
80555;PMS5003;69889;55.040;73.076;2024-02-26T00:58:01;51.75;41.00;26.00
80555;PMS5003;69889;55.040;73.076;2024-02-26T01:00:28;55.75;45.00;28.25
80555;PMS5003;69889;55.040;73.076;2024-02-26T01:02:56;54.00;43.00;26.75
80555;PMS5003;69889;55.040;73.076;2024-02-26T01:05:23;53.00;42.50;26.50
80555;PMS5003;69889;55.040;73.076;2024-02-26T01:07:49;59.00;46.00;29.75
80555;PMS5003;69889;55.040;73.076;2024-02-26T01:10:16;59.00;46.00;29.25
80555;PMS5003;69889;55.040;73.076;2024-02-26T01:13:02;49.50;39.25;26.25
80555;PMS5003;69889;55.040;73.076;2024-02-26T01:15:28;40.00;33.00;21.50
80555;PMS5003;69889;55.040;73.076;2024-02-26T01:17:55;41.75;34.75;22.50
80555;PMS5003;69889;55.040;73.076;2024-02-26T01:20:21;40.00;33.00;22.00
80555;PMS5003;69889;55.040;73.076;2024-02-26T01:22:48;41.00;33.75;22.00
80555;PMS5003;69889;55.040;73.076;2024-02-26T01:25:14;39.50;33.50;22.25
80555;PMS5003;69889;55.040;73.076;2024-02-26T01:27:41;45.00;35.75;22.75
80555;PMS5003;69889;55.040;73.076;2024-02-26T01:30:10;45.00;36.50;23.50
80555;PMS5003;69889;55.040;73.076;2024-02-26T01:32:37;48.00;38.00;25.00
80555;PMS5003;69889;55.040;73.076;2024-02-26T01:35:03;48.75;39.00;25.00
80555;PMS5003;69889;55.040;73.076;2024-02-26T01:37:30;59.00;47.25;29.75
80555;PMS5003;69889;55.040;73.076;2024-02-26T01:39:56;58.50;46.25;30.50
80555;PMS5003;69889;55.040;73.076;2024-02-26T01:42:23;61.50;48.00;31.25
80555;PMS5003;69889;55.040;73.076;2024-02-26T01:44:49;70.00;57.00;37.25
80555;PMS5003;69889;55.040;73.076;2024-02-26T01:47:15;73.50;57.50;36.25
80555;PMS5003;69889;55.040;73.076;2024-02-26T01:49:42;75.25;61.25;38.50
80555;PMS5003;69889;55.040;73.076;2024-02-26T01:52:08;79.00;65.00;38.50
80555;PMS5003;69889;55.040;73.076;2024-02-26T01:54:37;80.50;67.25;41.00
80555;PMS5003;69889;55.040;73.076;2024-02-26T01:57:04;82.25;68.00;42.75
80555;PMS5003;69889;55.040;73.076;2024-02-26T01:59:32;80.50;67.50;42.25
80555;PMS5003;69889;55.040;73.076;2024-02-26T02:02:00;89.25;74.25;44.00
80555;PMS5003;69889;55.040;73.076;2024-02-26T02:04:28;106.25;87.00;52.00
80555;PMS5003;69889;55.040;73.076;2024-02-26T02:06:54;124.75;100.00;58.50
80555;PMS5003;69889;55.040;73.076;2024-02-26T02:09:21;96.25;80.00;49.00
80555;PMS5003;69889;55.040;73.076;2024-02-26T02:11:49;83.00;70.50;42.50
80555;PMS5003;69889;55.040;73.076;2024-02-26T02:14:16;62.50;49.00;32.75
80555;PMS5003;69889;55.040;73.076;2024-02-26T02:16:42;69.00;53.00;33.75
80555;PMS5003;69889;55.040;73.076;2024-02-26T02:19:08;56.50;45.00;29.25
80555;PMS5003;69889;55.040;73.076;2024-02-26T02:21:35;55.75;44.00;27.50
80555;PMS5003;69889;55.040;73.076;2024-02-26T02:24:01;46.50;39.00;24.75
80555;PMS5003;69889;55.040;73.076;2024-02-26T02:26:28;47.25;37.75;23.75
80555;PMS5003;69889;55.040;73.076;2024-02-26T02:28:54;49.00;39.00;25.50
80555;PMS5003;69889;55.040;73.076;2024-02-26T02:31:21;41.25;34.00;22.75
80555;PMS5003;69889;55.040;73.076;2024-02-26T02:33:48;45.25;37.50;24.50
80555;PMS5003;69889;55.040;73.076;2024-02-26T02:36:14;44.00;35.50;23.25
80555;PMS5003;69889;55.040;73.076;2024-02-26T02:38:50;55.00;42.50;26.75
80555;PMS5003;69889;55.040;73.076;2024-02-26T02:41:26;53.75;42.00;27.25
80555;PMS5003;69889;55.040;73.076;2024-02-26T02:43:55;53.00;42.00;25.50
80555;PMS5003;69889;55.040;73.076;2024-02-26T02:46:22;53.00;42.00;27.50
80555;PMS5003;69889;55.040;73.076;2024-02-26T02:48:49;57.50;44.75;28.50
80555;PMS5003;69889;55.040;73.076;2024-02-26T02:51:15;57.75;46.00;29.75
80555;PMS5003;69889;55.040;73.076;2024-02-26T02:53:42;71.25;54.75;35.00
80555;PMS5003;69889;55.040;73.076;2024-02-26T02:56:08;77.50;63.25;40.00
80555;PMS5003;69889;55.040;73.076;2024-02-26T02:58:35;80.50;67.50;43.25
80555;PMS5003;69889;55.040;73.076;2024-02-26T03:01:01;83.50;70.25;43.50
80555;PMS5003;69889;55.040;73.076;2024-02-26T03:03:28;81.00;70.75;45.75
80555;PMS5003;69889;55.040;73.076;2024-02-26T03:05:54;89.75;76.00;47.75
80555;PMS5003;69889;55.040;73.076;2024-02-26T03:08:21;96.25;80.25;50.00
80555;PMS5003;69889;55.040;73.076;2024-02-26T03:10:47;96.00;80.25;50.00
80555;PMS5003;69889;55.040;73.076;2024-02-26T03:13:14;136.75;113.25;67.50
80555;PMS5003;69889;55.040;73.076;2024-02-26T03:15:41;128.50;105.00;62.75
80555;PMS5003;69889;55.040;73.076;2024-02-26T03:18:07;120.50;100.50;62.50
80555;PMS5003;69889;55.040;73.076;2024-02-26T03:20:34;116.00;97.00;61.50
80555;PMS5003;69889;55.040;73.076;2024-02-26T03:23:00;110.50;94.00;56.75
80555;PMS5003;69889;55.040;73.076;2024-02-26T03:25:27;83.00;70.00;44.75
80555;PMS5003;69889;55.040;73.076;2024-02-26T03:27:53;57.00;45.00;30.00
80555;PMS5003;69889;55.040;73.076;2024-02-26T03:30:19;49.00;40.50;26.25
80555;PMS5003;69889;55.040;73.076;2024-02-26T03:32:46;49.00;39.50;25.50
80555;PMS5003;69889;55.040;73.076;2024-02-26T03:35:13;52.00;41.00;26.00
80555;PMS5003;69889;55.040;73.076;2024-02-26T03:37:40;56.75;45.00;28.50
80555;PMS5003;69889;55.040;73.076;2024-02-26T03:40:06;49.00;39.75;25.00
80555;PMS5003;69889;55.040;73.076;2024-02-26T03:42:33;45.25;35.25;23.00
80555;PMS5003;69889;55.040;73.076;2024-02-26T03:44:59;40.50;33.75;22.25
80555;PMS5003;69889;55.040;73.076;2024-02-26T03:47:26;40.75;33.00;21.25
80555;PMS5003;69889;55.040;73.076;2024-02-26T03:49:52;41.75;33.75;22.75
80555;PMS5003;69889;55.040;73.076;2024-02-26T03:52:19;47.25;37.75;23.75
80555;PMS5003;69889;55.040;73.076;2024-02-26T03:54:45;45.00;36.00;23.00
80555;PMS5003;69889;55.040;73.076;2024-02-26T03:57:11;47.75;38.75;24.75
80555;PMS5003;69889;55.040;73.076;2024-02-26T03:59:38;53.00;42.00;27.25
80555;PMS5003;69889;55.040;73.076;2024-02-26T04:02:05;65.00;50.75;33.00
80555;PMS5003;69889;55.040;73.076;2024-02-26T04:04:35;64.50;51.25;33.00
80555;PMS5003;69889;55.040;73.076;2024-02-26T04:07:01;65.00;51.00;32.00
80555;PMS5003;69889;55.040;73.076;2024-02-26T04:09:28;70.00;55.50;35.00
80555;PMS5003;69889;55.040;73.076;2024-02-26T04:11:54;68.50;54.25;33.75
80555;PMS5003;69889;55.040;73.076;2024-02-26T04:14:21;67.00;51.75;33.50
80555;PMS5003;69889;55.040;73.076;2024-02-26T04:16:47;69.75;54.50;34.25
80555;PMS5003;69889;55.040;73.076;2024-02-26T04:19:17;72.25;57.75;36.50
80555;PMS5003;69889;55.040;73.076;2024-02-26T04:21:44;70.50;54.75;35.50
80555;PMS5003;69889;55.040;73.076;2024-02-26T04:24:10;64.00;49.00;31.75
80555;PMS5003;69889;55.040;73.076;2024-02-26T04:26:36;58.00;45.00;29.00
80555;PMS5003;69889;55.040;73.076;2024-02-26T04:29:03;55.00;44.00;28.00
80555;PMS5003;69889;55.040;73.076;2024-02-26T04:31:30;44.75;35.50;23.50
80555;PMS5003;69889;55.040;73.076;2024-02-26T04:33:59;42.50;34.00;22.00
80555;PMS5003;69889;55.040;73.076;2024-02-26T04:36:25;38.75;31.75;21.75
80555;PMS5003;69889;55.040;73.076;2024-02-26T04:38:52;42.75;34.00;22.00
80555;PMS5003;69889;55.040;73.076;2024-02-26T04:41:20;39.00;32.00;21.00
80555;PMS5003;69889;55.040;73.076;2024-02-26T04:43:47;40.00;32.75;21.00
80555;PMS5003;69889;55.040;73.076;2024-02-26T04:46:13;41.75;33.50;23.00
80555;PMS5003;69889;55.040;73.076;2024-02-26T04:48:40;41.50;33.75;21.75
80555;PMS5003;69889;55.040;73.076;2024-02-26T04:51:08;40.50;32.75;22.00
80555;PMS5003;69889;55.040;73.076;2024-02-26T04:53:34;43.00;35.00;23.25
80555;PMS5003;69889;55.040;73.076;2024-02-26T04:56:00;46.75;37.00;24.00
80555;PMS5003;69889;55.040;73.076;2024-02-26T04:58:27;39.50;32.00;22.00
80555;PMS5003;69889;55.040;73.076;2024-02-26T05:00:53;39.00;31.25;21.00
80555;PMS5003;69889;55.040;73.076;2024-02-26T05:03:20;38.50;31.00;21.00
80555;PMS5003;69889;55.040;73.076;2024-02-26T05:05:46;38.25;33.00;21.00
80555;PMS5003;69889;55.040;73.076;2024-02-26T05:08:13;38.25;31.75;21.50
80555;PMS5003;69889;55.040;73.076;2024-02-26T05:10:39;42.00;33.00;22.00
80555;PMS5003;69889;55.040;73.076;2024-02-26T05:13:07;37.00;32.00;21.00
80555;PMS5003;69889;55.040;73.076;2024-02-26T05:15:34;35.00;29.00;20.00
80555;PMS5003;69889;55.040;73.076;2024-02-26T05:18:01;36.50;30.00;21.00
80555;PMS5003;69889;55.040;73.076;2024-02-26T05:20:27;39.00;33.00;22.00
80555;PMS5003;69889;55.040;73.076;2024-02-26T05:22:54;39.50;32.50;21.50
80555;PMS5003;69889;55.040;73.076;2024-02-26T05:25:20;41.00;33.00;21.00
80555;PMS5003;69889;55.040;73.076;2024-02-26T05:27:47;39.50;32.00;21.00
80555;PMS5003;69889;55.040;73.076;2024-02-26T05:30:13;40.00;32.00;22.00
80555;PMS5003;69889;55.040;73.076;2024-02-26T05:32:40;38.75;32.00;22.00
80555;PMS5003;69889;55.040;73.076;2024-02-26T05:35:06;42.00;33.75;22.00
80555;PMS5003;69889;55.040;73.076;2024-02-26T05:37:33;39.00;32.00;21.00
80555;PMS5003;69889;55.040;73.076;2024-02-26T05:39:59;38.00;31.00;20.00
80555;PMS5003;69889;55.040;73.076;2024-02-26T05:42:26;37.00;30.75;20.75
80555;PMS5003;69889;55.040;73.076;2024-02-26T05:44:52;40.00;32.00;21.00
80555;PMS5003;69889;55.040;73.076;2024-02-26T05:47:19;38.50;30.75;20.00
80555;PMS5003;69889;55.040;73.076;2024-02-26T05:49:45;40.00;32.00;20.75
80555;PMS5003;69889;55.040;73.076;2024-02-26T05:52:11;39.00;32.00;20.00
80555;PMS5003;69889;55.040;73.076;2024-02-26T05:54:38;38.00;32.00;21.00
80555;PMS5003;69889;55.040;73.076;2024-02-26T05:57:05;36.00;29.00;20.00
80555;PMS5003;69889;55.040;73.076;2024-02-26T05:59:31;37.00;31.00;20.50
80555;PMS5003;69889;55.040;73.076;2024-02-26T06:01:57;39.00;31.00;21.00
80555;PMS5003;69889;55.040;73.076;2024-02-26T06:04:24;40.00;33.00;20.75
80555;PMS5003;69889;55.040;73.076;2024-02-26T06:06:50;37.00;31.50;22.00
80555;PMS5003;69889;55.040;73.076;2024-02-26T06:09:17;42.75;33.00;20.25
80555;PMS5003;69889;55.040;73.076;2024-02-26T06:11:43;40.00;32.75;21.00
80555;PMS5003;69889;55.040;73.076;2024-02-26T06:14:10;38.75;32.00;22.00
80555;PMS5003;69889;55.040;73.076;2024-02-26T06:16:38;44.00;35.50;23.00
80555;PMS5003;69889;55.040;73.076;2024-02-26T06:19:05;44.25;35.75;24.25
80555;PMS5003;69889;55.040;73.076;2024-02-26T06:21:31;40.00;33.00;23.00
80555;PMS5003;69889;55.040;73.076;2024-02-26T06:23:58;39.75;32.00;21.00
80555;PMS5003;69889;55.040;73.076;2024-02-26T06:26:25;39.00;32.00;21.00
80555;PMS5003;69889;55.040;73.076;2024-02-26T06:28:54;37.00;31.00;19.75
80555;PMS5003;69889;55.040;73.076;2024-02-26T06:31:21;38.00;31.00;20.00
80555;PMS5003;69889;55.040;73.076;2024-02-26T06:33:49;37.50;31.75;20.00
80555;PMS5003;69889;55.040;73.076;2024-02-26T06:36:15;37.00;29.75;20.00
80555;PMS5003;69889;55.040;73.076;2024-02-26T06:38:42;35.00;29.00;19.00
80555;PMS5003;69889;55.040;73.076;2024-02-26T06:41:09;35.00;31.00;21.25
80555;PMS5003;69889;55.040;73.076;2024-02-26T06:43:35;37.25;30.25;21.00
80555;PMS5003;69889;55.040;73.076;2024-02-26T06:46:02;37.50;31.25;20.75
80555;PMS5003;69889;55.040;73.076;2024-02-26T06:48:28;38.00;31.00;21.00
80555;PMS5003;69889;55.040;73.076;2024-02-26T06:50:55;39.00;32.00;22.00
80555;PMS5003;69889;55.040;73.076;2024-02-26T06:53:21;38.50;31.50;21.00
80555;PMS5003;69889;55.040;73.076;2024-02-26T06:55:48;36.00;30.25;20.75
80555;PMS5003;69889;55.040;73.076;2024-02-26T06:58:16;36.00;30.00;20.00
80555;PMS5003;69889;55.040;73.076;2024-02-26T07:00:43;38.00;31.00;21.00
80555;PMS5003;69889;55.040;73.076;2024-02-26T07:03:10;42.25;33.50;22.00
80555;PMS5003;69889;55.040;73.076;2024-02-26T07:05:37;43.75;35.75;24.00
80555;PMS5003;69889;55.040;73.076;2024-02-26T07:08:03;40.00;33.00;21.50
80555;PMS5003;69889;55.040;73.076;2024-02-26T07:10:30;44.00;35.00;23.00
80555;PMS5003;69889;55.040;73.076;2024-02-26T07:12:56;41.50;34.00;23.00
80555;PMS5003;69889;55.040;73.076;2024-02-26T07:15:22;42.75;35.00;23.00
80555;PMS5003;69889;55.040;73.076;2024-02-26T07:17:49;37.00;32.00;21.00
80555;PMS5003;69889;55.040;73.076;2024-02-26T07:20:16;42.00;33.75;21.50
80555;PMS5003;69889;55.040;73.076;2024-02-26T07:22:44;42.25;35.00;24.00
80555;PMS5003;69889;55.040;73.076;2024-02-26T07:25:29;41.00;33.50;22.75
80555;PMS5003;69889;55.040;73.076;2024-02-26T07:27:55;41.00;34.00;23.50
80555;PMS5003;69889;55.040;73.076;2024-02-26T07:30:22;42.75;35.00;23.25
80555;PMS5003;69889;55.040;73.076;2024-02-26T07:32:48;42.25;35.00;23.00
80555;PMS5003;69889;55.040;73.076;2024-02-26T07:35:14;42.00;34.00;23.00
80555;PMS5003;69889;55.040;73.076;2024-02-26T07:37:42;40.50;33.25;22.00
80555;PMS5003;69889;55.040;73.076;2024-02-26T07:40:09;38.75;32.00;22.00
80555;PMS5003;69889;55.040;73.076;2024-02-26T07:42:35;38.75;31.00;20.00
80555;PMS5003;69889;55.040;73.076;2024-02-26T07:45:02;34.00;28.00;19.00
80555;PMS5003;69889;55.040;73.076;2024-02-26T07:47:28;35.00;29.00;20.00
80555;PMS5003;69889;55.040;73.076;2024-02-26T07:49:55;41.00;32.00;21.25
80555;PMS5003;69889;55.040;73.076;2024-02-26T07:52:22;37.75;31.00;21.00
80555;PMS5003;69889;55.040;73.076;2024-02-26T07:54:48;36.00;31.00;20.00
80555;PMS5003;69889;55.040;73.076;2024-02-26T07:57:15;36.00;30.00;19.00
80555;PMS5003;69889;55.040;73.076;2024-02-26T07:59:43;34.00;28.00;19.00
80555;PMS5003;69889;55.040;73.076;2024-02-26T08:02:11;35.75;29.75;20.00
80555;PMS5003;69889;55.040;73.076;2024-02-26T08:04:37;34.00;28.00;19.00
80555;PMS5003;69889;55.040;73.076;2024-02-26T08:07:03;36.00;29.00;19.00
80555;PMS5003;69889;55.040;73.076;2024-02-26T08:09:30;37.75;30.50;19.00
80555;PMS5003;69889;55.040;73.076;2024-02-26T08:11:58;34.00;28.00;19.00
80555;PMS5003;69889;55.040;73.076;2024-02-26T08:14:24;31.50;26.50;18.25
80555;PMS5003;69889;55.040;73.076;2024-02-26T08:16:51;36.25;30.50;20.00
80555;PMS5003;69889;55.040;73.076;2024-02-26T08:19:17;36.00;30.00;19.00
80555;PMS5003;69889;55.040;73.076;2024-02-26T08:21:44;38.00;31.00;20.00
80555;PMS5003;69889;55.040;73.076;2024-02-26T08:24:11;38.00;32.00;20.25
80555;PMS5003;69889;55.040;73.076;2024-02-26T08:26:37;37.00;31.00;20.50
80555;PMS5003;69889;55.040;73.076;2024-02-26T08:29:09;37.75;31.00;21.00
80555;PMS5003;69889;55.040;73.076;2024-02-26T08:31:36;39.00;32.00;21.00
80555;PMS5003;69889;55.040;73.076;2024-02-26T08:34:04;39.00;32.00;21.00
80555;PMS5003;69889;55.040;73.076;2024-02-26T08:36:31;39.00;33.00;21.00
80555;PMS5003;69889;55.040;73.076;2024-02-26T08:38:58;37.25;31.00;20.00
80555;PMS5003;69889;55.040;73.076;2024-02-26T08:41:24;39.00;33.00;22.00
80555;PMS5003;69889;55.040;73.076;2024-02-26T08:43:51;37.00;30.00;20.00
80555;PMS5003;69889;55.040;73.076;2024-02-26T08:46:18;41.00;33.00;22.00
80555;PMS5003;69889;55.040;73.076;2024-02-26T08:48:44;45.00;35.00;23.00
80555;PMS5003;69889;55.040;73.076;2024-02-26T08:51:11;42.75;35.00;23.00
80555;PMS5003;69889;55.040;73.076;2024-02-26T08:53:37;37.00;31.00;20.25
80555;PMS5003;69889;55.040;73.076;2024-02-26T08:56:04;34.75;28.75;19.25
80555;PMS5003;69889;55.040;73.076;2024-02-26T08:58:30;39.00;31.00;21.00
80555;PMS5003;69889;55.040;73.076;2024-02-26T09:00:57;40.25;33.25;21.25
80555;PMS5003;69889;55.040;73.076;2024-02-26T09:03:24;35.00;29.75;20.00
80555;PMS5003;69889;55.040;73.076;2024-02-26T09:05:50;38.00;31.00;20.00
80555;PMS5003;69889;55.040;73.076;2024-02-26T09:08:17;36.75;30.00;21.00
80555;PMS5003;69889;55.040;73.076;2024-02-26T09:10:43;39.00;32.00;21.00
80555;PMS5003;69889;55.040;73.076;2024-02-26T09:13:10;36.00;30.00;20.75
80555;PMS5003;69889;55.040;73.076;2024-02-26T09:15:36;36.50;29.75;20.50
80555;PMS5003;69889;55.040;73.076;2024-02-26T09:18:03;40.00;32.25;21.50
80555;PMS5003;69889;55.040;73.076;2024-02-26T09:20:29;41.25;33.25;21.00
80555;PMS5003;69889;55.040;73.076;2024-02-26T09:22:56;41.00;33.00;21.00
80555;PMS5003;69889;55.040;73.076;2024-02-26T09:25:22;40.00;33.00;22.00
80555;PMS5003;69889;55.040;73.076;2024-02-26T09:27:49;38.00;32.00;21.00
80555;PMS5003;69889;55.040;73.076;2024-02-26T09:30:15;36.50;30.25;20.25
80555;PMS5003;69889;55.040;73.076;2024-02-26T09:32:45;38.00;31.25;20.75
80555;PMS5003;69889;55.040;73.076;2024-02-26T09:35:12;39.00;32.00;22.00
80555;PMS5003;69889;55.040;73.076;2024-02-26T09:37:39;38.00;31.75;21.00
80555;PMS5003;69889;55.040;73.076;2024-02-26T09:40:06;34.75;29.75;21.00
80555;PMS5003;69889;55.040;73.076;2024-02-26T09:42:32;37.00;30.00;20.00
80555;PMS5003;69889;55.040;73.076;2024-02-26T09:45:00;36.75;30.25;19.75
80555;PMS5003;69889;55.040;73.076;2024-02-26T09:47:33;37.00;31.00;21.00
80555;PMS5003;69889;55.040;73.076;2024-02-26T09:50:01;41.00;34.00;22.00
80555;PMS5003;69889;55.040;73.076;2024-02-26T09:52:28;40.00;33.00;22.00
80555;PMS5003;69889;55.040;73.076;2024-02-26T09:54:57;41.50;32.75;22.00
80555;PMS5003;69889;55.040;73.076;2024-02-26T09:57:23;40.50;33.00;22.00
80555;PMS5003;69889;55.040;73.076;2024-02-26T09:59:51;41.00;33.00;23.00
80555;PMS5003;69889;55.040;73.076;2024-02-26T10:02:19;43.75;35.00;24.00
80555;PMS5003;69889;55.040;73.076;2024-02-26T10:04:47;42.00;34.00;23.00
80555;PMS5003;69889;55.040;73.076;2024-02-26T10:07:16;39.00;32.00;22.00
80555;PMS5003;69889;55.040;73.076;2024-02-26T10:09:43;42.00;34.00;22.50
80555;PMS5003;69889;55.040;73.076;2024-02-26T10:12:10;40.00;32.75;22.00
80555;PMS5003;69889;55.040;73.076;2024-02-26T10:14:38;40.00;33.00;22.00
80555;PMS5003;69889;55.040;73.076;2024-02-26T10:17:06;39.00;32.75;22.00
80555;PMS5003;69889;55.040;73.076;2024-02-26T10:19:33;38.25;31.75;22.00
80555;PMS5003;69889;55.040;73.076;2024-02-26T10:22:00;40.00;33.00;23.00
80555;PMS5003;69889;55.040;73.076;2024-02-26T10:24:27;40.50;31.50;22.00
80555;PMS5003;69889;55.040;73.076;2024-02-26T10:26:54;40.00;33.00;21.00
80555;PMS5003;69889;55.040;73.076;2024-02-26T10:29:21;39.25;33.00;23.00
80555;PMS5003;69889;55.040;73.076;2024-02-26T10:31:48;44.00;35.00;22.50
80555;PMS5003;69889;55.040;73.076;2024-02-26T10:34:14;43.50;35.00;24.00
80555;PMS5003;69889;55.040;73.076;2024-02-26T10:36:41;41.50;33.75;22.50
80555;PMS5003;69889;55.040;73.076;2024-02-26T10:39:08;42.00;35.00;23.75
80555;PMS5003;69889;55.040;73.076;2024-02-26T10:41:34;40.50;33.00;22.25
80555;PMS5003;69889;55.040;73.076;2024-02-26T10:44:01;39.00;31.75;22.00
80555;PMS5003;69889;55.040;73.076;2024-02-26T10:46:28;38.50;32.00;19.75
80555;PMS5003;69889;55.040;73.076;2024-02-26T10:48:54;38.00;32.00;22.00
80555;PMS5003;69889;55.040;73.076;2024-02-26T10:51:26;45.75;36.75;24.00
80555;PMS5003;69889;55.040;73.076;2024-02-26T10:53:54;49.00;39.00;25.50
80555;PMS5003;69889;55.040;73.076;2024-02-26T10:56:26;43.25;36.00;23.00
80555;PMS5003;69889;55.040;73.076;2024-02-26T10:58:55;43.00;35.00;23.00
80555;PMS5003;69889;55.040;73.076;2024-02-26T11:01:22;45.25;35.00;24.00
80555;PMS5003;69889;55.040;73.076;2024-02-26T11:03:50;36.25;30.75;21.00
80555;PMS5003;69889;55.040;73.076;2024-02-26T11:06:17;35.50;28.50;18.75
80555;PMS5003;69889;55.040;73.076;2024-02-26T11:08:49;38.00;31.00;19.25
80555;PMS5003;69889;55.040;73.076;2024-02-26T11:11:16;41.00;32.75;22.00
80555;PMS5003;69889;55.040;73.076;2024-02-26T11:13:44;41.00;33.00;20.25
80555;PMS5003;69889;55.040;73.076;2024-02-26T11:16:15;40.00;33.00;22.00
80555;PMS5003;69889;55.040;73.076;2024-02-26T11:18:42;41.00;33.00;22.00
80555;PMS5003;69889;55.040;73.076;2024-02-26T11:21:12;45.25;37.00;24.00
80555;PMS5003;69889;55.040;73.076;2024-02-26T11:23:39;49.25;40.00;26.00
80555;PMS5003;69889;55.040;73.076;2024-02-26T11:26:06;49.00;39.00;26.00
80555;PMS5003;69889;55.040;73.076;2024-02-26T11:28:34;49.00;39.00;26.00
80555;PMS5003;69889;55.040;73.076;2024-02-26T11:31:01;40.00;33.00;23.00
80555;PMS5003;69889;55.040;73.076;2024-02-26T11:33:30;37.25;30.00;20.00
80555;PMS5003;69889;55.040;73.076;2024-02-26T11:35:57;37.75;31.00;21.00
80555;PMS5003;69889;55.040;73.076;2024-02-26T11:38:26;36.75;31.00;21.00
80555;PMS5003;69889;55.040;73.076;2024-02-26T11:40:53;35.00;29.75;21.00
80555;PMS5003;69889;55.040;73.076;2024-02-26T11:43:23;37.50;30.00;20.00
80555;PMS5003;69889;55.040;73.076;2024-02-26T11:45:49;39.00;32.00;21.00
80555;PMS5003;69889;55.040;73.076;2024-02-26T11:48:21;37.50;30.75;20.00
80555;PMS5003;69889;55.040;73.076;2024-02-26T11:50:50;34.50;29.25;20.00
80555;PMS5003;69889;55.040;73.076;2024-02-26T11:53:20;35.00;29.00;19.00
80555;PMS5003;69889;55.040;73.076;2024-02-26T11:55:47;35.00;30.00;21.00
80555;PMS5003;69889;55.040;73.076;2024-02-26T11:58:14;37.00;31.00;20.00
80555;PMS5003;69889;55.040;73.076;2024-02-26T12:00:40;38.50;31.00;21.00
80555;PMS5003;69889;55.040;73.076;2024-02-26T12:03:07;38.75;30.00;19.25
80555;PMS5003;69889;55.040;73.076;2024-02-26T12:05:36;38.00;32.00;22.00
80555;PMS5003;69889;55.040;73.076;2024-02-26T12:08:05;40.00;32.00;22.00
80555;PMS5003;69889;55.040;73.076;2024-02-26T12:10:38;38.75;33.00;22.00
80555;PMS5003;69889;55.040;73.076;2024-02-26T12:15:32;41.00;34.00;21.25
80555;PMS5003;69889;55.040;73.076;2024-02-26T12:18:03;40.00;32.75;22.00
80555;PMS5003;69889;55.040;73.076;2024-02-26T12:20:30;42.00;33.50;22.00
80555;PMS5003;69889;55.040;73.076;2024-02-26T12:22:57;39.25;32.75;22.75
80555;PMS5003;69889;55.040;73.076;2024-02-26T12:25:41;39.00;31.75;21.00
80555;PMS5003;69889;55.040;73.076;2024-02-26T12:28:27;41.50;33.25;22.00
80555;PMS5003;69889;55.040;73.076;2024-02-26T12:30:53;42.75;35.25;23.00
80555;PMS5003;69889;55.040;73.076;2024-02-26T12:33:20;43.00;34.50;23.00
80555;PMS5003;69889;55.040;73.076;2024-02-26T12:35:46;51.00;40.00;27.00
80555;PMS5003;69889;55.040;73.076;2024-02-26T12:38:14;57.00;45.00;30.00
80555;PMS5003;69889;55.040;73.076;2024-02-26T12:40:41;65.75;51.00;32.00
80555;PMS5003;69889;55.040;73.076;2024-02-26T12:43:08;62.75;49.00;32.00
80555;PMS5003;69889;55.040;73.076;2024-02-26T12:45:40;61.50;49.00;32.00
80555;PMS5003;69889;55.040;73.076;2024-02-26T12:48:07;60.25;48.00;32.00
80555;PMS5003;69889;55.040;73.076;2024-02-26T12:50:33;59.00;45.25;29.75
80555;PMS5003;69889;55.040;73.076;2024-02-26T12:53:00;55.75;43.25;28.50
80555;PMS5003;69889;55.040;73.076;2024-02-26T12:55:28;59.00;45.75;30.00
80555;PMS5003;69889;55.040;73.076;2024-02-26T12:57:54;57.50;46.00;30.75
80555;PMS5003;69889;55.040;73.076;2024-02-26T13:00:22;63.25;50.00;32.00
80555;PMS5003;69889;55.040;73.076;2024-02-26T13:02:50;66.25;50.75;33.00
80555;PMS5003;69889;55.040;73.076;2024-02-26T13:05:37;68.00;53.00;35.00
80555;PMS5003;69889;55.040;73.076;2024-02-26T13:08:03;65.00;51.25;34.00
80555;PMS5003;69889;55.040;73.076;2024-02-26T13:10:31;68.50;52.25;34.00
80555;PMS5003;69889;55.040;73.076;2024-02-26T13:13:06;66.50;52.00;34.00
80555;PMS5003;69889;55.040;73.076;2024-02-26T13:15:32;62.75;49.00;31.00
80555;PMS5003;69889;55.040;73.076;2024-02-26T13:18:19;60.50;48.00;32.00
80555;PMS5003;69889;55.040;73.076;2024-02-26T13:20:45;57.00;46.00;30.00
80555;PMS5003;69889;55.040;73.076;2024-02-26T13:23:12;59.00;46.00;31.00
80555;PMS5003;69889;55.040;73.076;2024-02-26T13:25:39;54.00;43.75;29.00
80555;PMS5003;69889;55.040;73.076;2024-02-26T13:28:09;54.25;43.75;29.00
80555;PMS5003;69889;55.040;73.076;2024-02-26T13:30:35;49.00;40.00;27.00
80555;PMS5003;69889;55.040;73.076;2024-02-26T13:33:11;49.00;39.00;26.00
80555;PMS5003;69889;55.040;73.076;2024-02-26T13:35:38;51.00;41.00;27.00
80555;PMS5003;69889;55.040;73.076;2024-02-26T13:38:24;48.00;38.00;25.00